sensor_id;sensor_type;location;lat;lon;timestamp;P1;durP1;ratioP1;P2;durP2;ratioP2
75191;SDS011;63771;52.580;9.734;2022-11-20T00:01:20;14.45;;;10.95;;
75191;SDS011;63771;52.580;9.734;2022-11-20T00:03:48;11.48;;;9.80;;
75191;SDS011;63771;52.580;9.734;2022-11-20T00:06:17;14.70;;;9.98;;
75191;SDS011;63771;52.580;9.734;2022-11-20T00:08:45;11.57;;;10.20;;
75191;SDS011;63771;52.580;9.734;2022-11-20T00:13:44;13.90;;;10.00;;
75191;SDS011;63771;52.580;9.734;2022-11-20T00:16:11;11.43;;;9.55;;
75191;SDS011;63771;52.580;9.734;2022-11-20T00:18:38;12.48;;;8.45;;
75191;SDS011;63771;52.580;9.734;2022-11-20T00:21:17;13.43;;;8.65;;
75191;SDS011;63771;52.580;9.734;2022-11-20T00:23:45;10.90;;;9.05;;
75191;SDS011;63771;52.580;9.734;2022-11-20T00:26:13;15.35;;;9.75;;
75191;SDS011;63771;52.580;9.734;2022-11-20T00:31:12;11.95;;;7.47;;
75191;SDS011;63771;52.580;9.734;2022-11-20T00:33:39;10.57;;;9.40;;
75191;SDS011;63771;52.580;9.734;2022-11-20T00:36:07;10.05;;;8.20;;
75191;SDS011;63771;52.580;9.734;2022-11-20T00:38:37;11.20;;;8.73;;
75191;SDS011;63771;52.580;9.734;2022-11-20T00:41:06;14.85;;;9.85;;
75191;SDS011;63771;52.580;9.734;2022-11-20T00:43:34;12.50;;;8.45;;
75191;SDS011;63771;52.580;9.734;2022-11-20T00:46:02;13.13;;;8.88;;
75191;SDS011;63771;52.580;9.734;2022-11-20T00:48:36;10.65;;;8.65;;
75191;SDS011;63771;52.580;9.734;2022-11-20T00:51:02;10.02;;;7.70;;
75191;SDS011;63771;52.580;9.734;2022-11-20T00:53:29;12.43;;;9.27;;
75191;SDS011;63771;52.580;9.734;2022-11-20T00:55:56;11.88;;;9.15;;
75191;SDS011;63771;52.580;9.734;2022-11-20T00:58:23;13.00;;;9.43;;
75191;SDS011;63771;52.580;9.734;2022-11-20T01:00:50;13.95;;;9.15;;
75191;SDS011;63771;52.580;9.734;2022-11-20T01:03:17;11.38;;;8.50;;
75191;SDS011;63771;52.580;9.734;2022-11-20T01:05:43;13.27;;;9.48;;
75191;SDS011;63771;52.580;9.734;2022-11-20T01:08:09;13.70;;;9.23;;
75191;SDS011;63771;52.580;9.734;2022-11-20T01:10:36;14.20;;;9.85;;
75191;SDS011;63771;52.580;9.734;2022-11-20T01:13:02;12.95;;;9.88;;
75191;SDS011;63771;52.580;9.734;2022-11-20T01:15:47;15.85;;;9.60;;
75191;SDS011;63771;52.580;9.734;2022-11-20T01:18:14;11.98;;;9.75;;
75191;SDS011;63771;52.580;9.734;2022-11-20T01:20:40;10.80;;;8.60;;
75191;SDS011;63771;52.580;9.734;2022-11-20T01:23:07;12.75;;;9.55;;
75191;SDS011;63771;52.580;9.734;2022-11-20T01:25:34;11.45;;;9.52;;
75191;SDS011;63771;52.580;9.734;2022-11-20T01:28:00;12.02;;;9.48;;
75191;SDS011;63771;52.580;9.734;2022-11-20T01:30:28;12.98;;;9.55;;
75191;SDS011;63771;52.580;9.734;2022-11-20T01:32:55;13.80;;;11.73;;
75191;SDS011;63771;52.580;9.734;2022-11-20T01:35:21;12.10;;;9.57;;
75191;SDS011;63771;52.580;9.734;2022-11-20T01:37:49;13.73;;;10.90;;
75191;SDS011;63771;52.580;9.734;2022-11-20T01:40:16;16.17;;;9.63;;
75191;SDS011;63771;52.580;9.734;2022-11-20T01:42:45;12.60;;;8.80;;
75191;SDS011;63771;52.580;9.734;2022-11-20T01:45:48;12.20;;;8.35;;
75191;SDS011;63771;52.580;9.734;2022-11-20T01:48:27;11.52;;;8.98;;
75191;SDS011;63771;52.580;9.734;2022-11-20T01:51:03;12.25;;;9.48;;
75191;SDS011;63771;52.580;9.734;2022-11-20T01:53:32;14.13;;;11.10;;
75191;SDS011;63771;52.580;9.734;2022-11-20T01:56:03;14.65;;;9.07;;
75191;SDS011;63771;52.580;9.734;2022-11-20T01:58:35;11.68;;;8.27;;
75191;SDS011;63771;52.580;9.734;2022-11-20T02:01:03;11.25;;;9.10;;
75191;SDS011;63771;52.580;9.734;2022-11-20T02:03:30;13.90;;;8.88;;
75191;SDS011;63771;52.580;9.734;2022-11-20T02:08:43;13.15;;;9.32;;
75191;SDS011;63771;52.580;9.734;2022-11-20T02:11:09;17.45;;;10.05;;
75191;SDS011;63771;52.580;9.734;2022-11-20T02:13:36;17.15;;;9.77;;
75191;SDS011;63771;52.580;9.734;2022-11-20T02:16:13;16.38;;;10.10;;
75191;SDS011;63771;52.580;9.734;2022-11-20T02:18:42;12.43;;;9.90;;
75191;SDS011;63771;52.580;9.734;2022-11-20T02:24:06;12.05;;;10.07;;
75191;SDS011;63771;52.580;9.734;2022-11-20T02:26:38;15.23;;;9.57;;
75191;SDS011;63771;52.580;9.734;2022-11-20T02:29:08;15.20;;;10.20;;
75191;SDS011;63771;52.580;9.734;2022-11-20T02:31:36;14.27;;;9.75;;
75191;SDS011;63771;52.580;9.734;2022-11-20T02:34:04;13.13;;;9.48;;
75191;SDS011;63771;52.580;9.734;2022-11-20T02:36:31;13.85;;;9.45;;
75191;SDS011;63771;52.580;9.734;2022-11-20T02:39:01;14.82;;;9.57;;
75191;SDS011;63771;52.580;9.734;2022-11-20T02:41:36;12.73;;;9.82;;
75191;SDS011;63771;52.580;9.734;2022-11-20T02:44:03;13.00;;;9.07;;
75191;SDS011;63771;52.580;9.734;2022-11-20T02:46:30;15.80;;;9.45;;
75191;SDS011;63771;52.580;9.734;2022-11-20T02:48:58;13.65;;;8.55;;
75191;SDS011;63771;52.580;9.734;2022-11-20T02:51:24;14.65;;;9.80;;
75191;SDS011;63771;52.580;9.734;2022-11-20T02:53:50;11.95;;;9.05;;
75191;SDS011;63771;52.580;9.734;2022-11-20T02:56:17;12.10;;;8.93;;
75191;SDS011;63771;52.580;9.734;2022-11-20T02:58:43;14.35;;;10.38;;
75191;SDS011;63771;52.580;9.734;2022-11-20T03:01:10;15.02;;;10.15;;
75191;SDS011;63771;52.580;9.734;2022-11-20T03:03:36;12.98;;;8.50;;
75191;SDS011;63771;52.580;9.734;2022-11-20T03:06:03;12.23;;;9.77;;
75191;SDS011;63771;52.580;9.734;2022-11-20T03:08:29;12.73;;;11.40;;
75191;SDS011;63771;52.580;9.734;2022-11-20T03:10:56;14.13;;;8.45;;
75191;SDS011;63771;52.580;9.734;2022-11-20T03:13:24;15.50;;;10.30;;
75191;SDS011;63771;52.580;9.734;2022-11-20T03:15:50;16.25;;;10.73;;
75191;SDS011;63771;52.580;9.734;2022-11-20T03:18:17;11.52;;;9.68;;
75191;SDS011;63771;52.580;9.734;2022-11-20T03:20:44;14.52;;;8.93;;
75191;SDS011;63771;52.580;9.734;2022-11-20T03:23:10;13.90;;;8.82;;
75191;SDS011;63771;52.580;9.734;2022-11-20T03:25:37;9.57;;;7.57;;
75191;SDS011;63771;52.580;9.734;2022-11-20T03:28:03;12.52;;;10.32;;
75191;SDS011;63771;52.580;9.734;2022-11-20T03:30:30;14.18;;;8.75;;
75191;SDS011;63771;52.580;9.734;2022-11-20T03:32:56;11.48;;;8.30;;
75191;SDS011;63771;52.580;9.734;2022-11-20T03:35:22;11.95;;;8.43;;
75191;SDS011;63771;52.580;9.734;2022-11-20T03:37:49;13.35;;;9.73;;
75191;SDS011;63771;52.580;9.734;2022-11-20T03:40:16;11.27;;;9.48;;
75191;SDS011;63771;52.580;9.734;2022-11-20T03:42:42;11.90;;;9.05;;
75191;SDS011;63771;52.580;9.734;2022-11-20T03:45:16;12.77;;;9.82;;
75191;SDS011;63771;52.580;9.734;2022-11-20T03:47:43;13.10;;;10.60;;
75191;SDS011;63771;52.580;9.734;2022-11-20T03:50:11;11.15;;;9.13;;
75191;SDS011;63771;52.580;9.734;2022-11-20T03:52:39;13.45;;;9.27;;
75191;SDS011;63771;52.580;9.734;2022-11-20T03:55:06;9.45;;;8.43;;
75191;SDS011;63771;52.580;9.734;2022-11-20T03:57:33;11.75;;;9.60;;
75191;SDS011;63771;52.580;9.734;2022-11-20T03:59:59;13.18;;;9.57;;
75191;SDS011;63771;52.580;9.734;2022-11-20T04:02:26;10.48;;;8.10;;
75191;SDS011;63771;52.580;9.734;2022-11-20T04:04:55;12.40;;;9.35;;
75191;SDS011;63771;52.580;9.734;2022-11-20T04:07:21;11.05;;;8.77;;
75191;SDS011;63771;52.580;9.734;2022-11-20T04:09:48;12.75;;;9.43;;
75191;SDS011;63771;52.580;9.734;2022-11-20T04:12:15;11.30;;;7.93;;
75191;SDS011;63771;52.580;9.734;2022-11-20T04:14:41;11.55;;;8.02;;
75191;SDS011;63771;52.580;9.734;2022-11-20T04:17:08;11.07;;;9.02;;
75191;SDS011;63771;52.580;9.734;2022-11-20T04:19:34;11.38;;;8.20;;
75191;SDS011;63771;52.580;9.734;2022-11-20T04:22:01;13.13;;;9.93;;
75191;SDS011;63771;52.580;9.734;2022-11-20T04:24:27;8.85;;;7.75;;
75191;SDS011;63771;52.580;9.734;2022-11-20T04:26:54;9.32;;;7.40;;
75191;SDS011;63771;52.580;9.734;2022-11-20T04:29:20;16.63;;;9.70;;
75191;SDS011;63771;52.580;9.734;2022-11-20T04:31:47;10.82;;;7.95;;
75191;SDS011;63771;52.580;9.734;2022-11-20T04:34:13;11.75;;;8.25;;
75191;SDS011;63771;52.580;9.734;2022-11-20T04:36:40;10.88;;;8.48;;
75191;SDS011;63771;52.580;9.734;2022-11-20T04:39:06;10.98;;;8.88;;
75191;SDS011;63771;52.580;9.734;2022-11-20T04:41:36;12.52;;;9.82;;
75191;SDS011;63771;52.580;9.734;2022-11-20T04:44:03;11.75;;;8.82;;
75191;SDS011;63771;52.580;9.734;2022-11-20T04:46:31;13.43;;;8.45;;
75191;SDS011;63771;52.580;9.734;2022-11-20T04:49:02;12.18;;;9.80;;
75191;SDS011;63771;52.580;9.734;2022-11-20T04:51:28;11.40;;;7.63;;
75191;SDS011;63771;52.580;9.734;2022-11-20T04:53:55;16.38;;;9.27;;
75191;SDS011;63771;52.580;9.734;2022-11-20T04:56:23;12.90;;;8.00;;
75191;SDS011;63771;52.580;9.734;2022-11-20T04:58:50;11.80;;;8.25;;
75191;SDS011;63771;52.580;9.734;2022-11-20T05:01:17;12.95;;;8.38;;
75191;SDS011;63771;52.580;9.734;2022-11-20T05:03:46;14.82;;;8.88;;
75191;SDS011;63771;52.580;9.734;2022-11-20T05:06:13;11.18;;;8.90;;
75191;SDS011;63771;52.580;9.734;2022-11-20T05:08:41;12.77;;;9.40;;
75191;SDS011;63771;52.580;9.734;2022-11-20T05:11:09;12.15;;;8.98;;
75191;SDS011;63771;52.580;9.734;2022-11-20T05:13:37;13.48;;;8.10;;
75191;SDS011;63771;52.580;9.734;2022-11-20T05:16:05;9.98;;;7.78;;
75191;SDS011;63771;52.580;9.734;2022-11-20T05:18:34;10.07;;;7.95;;
75191;SDS011;63771;52.580;9.734;2022-11-20T05:21:01;10.25;;;8.55;;
75191;SDS011;63771;52.580;9.734;2022-11-20T05:23:29;9.32;;;7.50;;
75191;SDS011;63771;52.580;9.734;2022-11-20T05:25:57;8.20;;;7.40;;
75191;SDS011;63771;52.580;9.734;2022-11-20T05:28:24;9.95;;;7.97;;
75191;SDS011;63771;52.580;9.734;2022-11-20T05:30:51;10.88;;;7.45;;
75191;SDS011;63771;52.580;9.734;2022-11-20T05:33:18;10.93;;;7.38;;
75191;SDS011;63771;52.580;9.734;2022-11-20T05:35:44;12.88;;;8.40;;
75191;SDS011;63771;52.580;9.734;2022-11-20T05:38:11;11.95;;;9.00;;
75191;SDS011;63771;52.580;9.734;2022-11-20T05:40:37;11.60;;;8.90;;
75191;SDS011;63771;52.580;9.734;2022-11-20T05:43:04;10.25;;;7.60;;
75191;SDS011;63771;52.580;9.734;2022-11-20T05:45:30;12.23;;;8.43;;
75191;SDS011;63771;52.580;9.734;2022-11-20T05:47:58;11.25;;;7.57;;
75191;SDS011;63771;52.580;9.734;2022-11-20T05:50:25;13.52;;;8.05;;
75191;SDS011;63771;52.580;9.734;2022-11-20T05:52:52;9.15;;;7.28;;
75191;SDS011;63771;52.580;9.734;2022-11-20T05:55:19;12.15;;;7.90;;
75191;SDS011;63771;52.580;9.734;2022-11-20T05:57:46;9.10;;;7.20;;
75191;SDS011;63771;52.580;9.734;2022-11-20T06:00:13;11.82;;;8.73;;
75191;SDS011;63771;52.580;9.734;2022-11-20T06:02:39;15.23;;;9.75;;
75191;SDS011;63771;52.580;9.734;2022-11-20T06:05:06;10.40;;;9.05;;
75191;SDS011;63771;52.580;9.734;2022-11-20T06:07:32;9.63;;;8.63;;
75191;SDS011;63771;52.580;9.734;2022-11-20T06:09:59;8.93;;;7.35;;
75191;SDS011;63771;52.580;9.734;2022-11-20T06:12:25;10.68;;;7.03;;
75191;SDS011;63771;52.580;9.734;2022-11-20T06:14:52;10.38;;;8.65;;
75191;SDS011;63771;52.580;9.734;2022-11-20T06:17:19;10.10;;;8.18;;
75191;SDS011;63771;52.580;9.734;2022-11-20T06:19:45;10.10;;;8.07;;
75191;SDS011;63771;52.580;9.734;2022-11-20T06:22:12;10.55;;;8.30;;
75191;SDS011;63771;52.580;9.734;2022-11-20T06:24:39;9.13;;;7.50;;
75191;SDS011;63771;52.580;9.734;2022-11-20T06:27:06;9.50;;;7.75;;
75191;SDS011;63771;52.580;9.734;2022-11-20T06:29:33;11.30;;;8.23;;
75191;SDS011;63771;52.580;9.734;2022-11-20T06:32:00;10.95;;;7.60;;
75191;SDS011;63771;52.580;9.734;2022-11-20T06:34:26;9.43;;;7.38;;
75191;SDS011;63771;52.580;9.734;2022-11-20T06:36:53;9.93;;;7.80;;
75191;SDS011;63771;52.580;9.734;2022-11-20T06:39:19;7.30;;;6.13;;
75191;SDS011;63771;52.580;9.734;2022-11-20T06:41:46;11.35;;;7.00;;
75191;SDS011;63771;52.580;9.734;2022-11-20T06:44:13;10.82;;;7.95;;
75191;SDS011;63771;52.580;9.734;2022-11-20T06:46:39;10.65;;;7.22;;
75191;SDS011;63771;52.580;9.734;2022-11-20T06:49:06;9.55;;;7.95;;
75191;SDS011;63771;52.580;9.734;2022-11-20T06:51:32;11.38;;;8.38;;
75191;SDS011;63771;52.580;9.734;2022-11-20T06:53:59;10.32;;;8.05;;
75191;SDS011;63771;52.580;9.734;2022-11-20T06:56:26;10.52;;;8.63;;
75191;SDS011;63771;52.580;9.734;2022-11-20T06:58:53;12.38;;;8.68;;
75191;SDS011;63771;52.580;9.734;2022-11-20T07:01:19;10.80;;;6.50;;
75191;SDS011;63771;52.580;9.734;2022-11-20T07:03:48;11.30;;;7.43;;
75191;SDS011;63771;52.580;9.734;2022-11-20T07:06:15;8.82;;;7.10;;
75191;SDS011;63771;52.580;9.734;2022-11-20T07:08:41;8.27;;;7.25;;
75191;SDS011;63771;52.580;9.734;2022-11-20T07:11:11;8.52;;;7.15;;
75191;SDS011;63771;52.580;9.734;2022-11-20T07:13:37;7.68;;;6.22;;
75191;SDS011;63771;52.580;9.734;2022-11-20T07:16:05;11.73;;;8.77;;
75191;SDS011;63771;52.580;9.734;2022-11-20T07:21:03;9.43;;;8.52;;
75191;SDS011;63771;52.580;9.734;2022-11-20T07:23:32;9.30;;;6.95;;
75191;SDS011;63771;52.580;9.734;2022-11-20T07:26:02;8.25;;;6.90;;
75191;SDS011;63771;52.580;9.734;2022-11-20T07:28:28;11.20;;;7.88;;
75191;SDS011;63771;52.580;9.734;2022-11-20T07:30:54;11.55;;;7.28;;
75191;SDS011;63771;52.580;9.734;2022-11-20T07:33:19;9.07;;;8.13;;
75191;SDS011;63771;52.580;9.734;2022-11-20T07:35:45;8.57;;;7.10;;
75191;SDS011;63771;52.580;9.734;2022-11-20T07:38:10;9.93;;;6.88;;
75191;SDS011;63771;52.580;9.734;2022-11-20T07:40:36;10.33;;;7.37;;
75191;SDS011;63771;52.580;9.734;2022-11-20T07:43:01;10.68;;;7.47;;
75191;SDS011;63771;52.580;9.734;2022-11-20T07:45:26;7.97;;;6.77;;
75191;SDS011;63771;52.580;9.734;2022-11-20T07:47:52;11.00;;;7.30;;
75191;SDS011;63771;52.580;9.734;2022-11-20T07:50:17;8.25;;;6.53;;
75191;SDS011;63771;52.580;9.734;2022-11-20T07:52:44;10.10;;;7.22;;
75191;SDS011;63771;52.580;9.734;2022-11-20T07:55:09;10.00;;;6.30;;
75191;SDS011;63771;52.580;9.734;2022-11-20T07:57:35;11.60;;;8.05;;
75191;SDS011;63771;52.580;9.734;2022-11-20T08:00:01;9.00;;;8.10;;
75191;SDS011;63771;52.580;9.734;2022-11-20T08:02:28;8.35;;;7.40;;
75191;SDS011;63771;52.580;9.734;2022-11-20T08:04:54;8.93;;;6.38;;
75191;SDS011;63771;52.580;9.734;2022-11-20T08:07:19;8.20;;;6.60;;
75191;SDS011;63771;52.580;9.734;2022-11-20T08:09:44;7.70;;;6.93;;
75191;SDS011;63771;52.580;9.734;2022-11-20T08:12:16;10.83;;;8.13;;
75191;SDS011;63771;52.580;9.734;2022-11-20T08:15:15;12.82;;;7.22;;
75191;SDS011;63771;52.580;9.734;2022-11-20T08:17:41;9.10;;;8.13;;
75191;SDS011;63771;52.580;9.734;2022-11-20T08:20:06;10.17;;;8.83;;
75191;SDS011;63771;52.580;9.734;2022-11-20T08:22:32;9.60;;;8.60;;
75191;SDS011;63771;52.580;9.734;2022-11-20T08:24:57;9.90;;;8.07;;
75191;SDS011;63771;52.580;9.734;2022-11-20T08:27:23;10.03;;;7.00;;
75191;SDS011;63771;52.580;9.734;2022-11-20T08:29:48;10.70;;;7.27;;
75191;SDS011;63771;52.580;9.734;2022-11-20T08:32:13;10.93;;;7.77;;
75191;SDS011;63771;52.580;9.734;2022-11-20T08:34:39;8.33;;;6.97;;
75191;SDS011;63771;52.580;9.734;2022-11-20T08:37:04;8.73;;;6.83;;
75191;SDS011;63771;52.580;9.734;2022-11-20T08:39:29;9.20;;;6.63;;
75191;SDS011;63771;52.580;9.734;2022-11-20T08:41:55;10.13;;;8.10;;
75191;SDS011;63771;52.580;9.734;2022-11-20T08:44:20;10.45;;;7.85;;
75191;SDS011;63771;52.580;9.734;2022-11-20T08:46:45;9.13;;;6.90;;
75191;SDS011;63771;52.580;9.734;2022-11-20T08:49:12;9.32;;;7.15;;
75191;SDS011;63771;52.580;9.734;2022-11-20T08:51:39;8.68;;;7.22;;
75191;SDS011;63771;52.580;9.734;2022-11-20T08:54:05;9.48;;;8.32;;
75191;SDS011;63771;52.580;9.734;2022-11-20T08:56:31;9.93;;;7.95;;
75191;SDS011;63771;52.580;9.734;2022-11-20T08:58:57;8.25;;;6.47;;
75191;SDS011;63771;52.580;9.734;2022-11-20T09:01:24;9.38;;;6.53;;
75191;SDS011;63771;52.580;9.734;2022-11-20T09:03:50;10.93;;;7.88;;
75191;SDS011;63771;52.580;9.734;2022-11-20T09:06:15;10.77;;;7.20;;
75191;SDS011;63771;52.580;9.734;2022-11-20T09:08:41;9.05;;;6.35;;
75191;SDS011;63771;52.580;9.734;2022-11-20T09:11:07;9.38;;;7.05;;
75191;SDS011;63771;52.580;9.734;2022-11-20T09:13:33;8.75;;;6.22;;
75191;SDS011;63771;52.580;9.734;2022-11-20T09:16:06;7.38;;;6.65;;
75191;SDS011;63771;52.580;9.734;2022-11-20T09:18:33;7.93;;;6.28;;
75191;SDS011;63771;52.580;9.734;2022-11-20T09:21:01;9.13;;;6.10;;
75191;SDS011;63771;52.580;9.734;2022-11-20T09:23:30;7.35;;;6.45;;
75191;SDS011;63771;52.580;9.734;2022-11-20T09:25:58;6.97;;;5.53;;
75191;SDS011;63771;52.580;9.734;2022-11-20T09:30:52;7.03;;;5.73;;
75191;SDS011;63771;52.580;9.734;2022-11-20T09:33:17;4.93;;;4.53;;
75191;SDS011;63771;52.580;9.734;2022-11-20T09:35:43;8.27;;;5.95;;
75191;SDS011;63771;52.580;9.734;2022-11-20T09:38:09;6.85;;;5.93;;
75191;SDS011;63771;52.580;9.734;2022-11-20T09:40:36;5.55;;;5.05;;
75191;SDS011;63771;52.580;9.734;2022-11-20T09:46:01;6.43;;;5.70;;
75191;SDS011;63771;52.580;9.734;2022-11-20T09:48:36;7.55;;;6.18;;
75191;SDS011;63771;52.580;9.734;2022-11-20T09:51:28;6.30;;;5.43;;
75191;SDS011;63771;52.580;9.734;2022-11-20T09:56:40;7.28;;;5.75;;
75191;SDS011;63771;52.580;9.734;2022-11-20T09:59:14;6.43;;;5.80;;
75191;SDS011;63771;52.580;9.734;2022-11-20T10:01:47;7.55;;;6.63;;
75191;SDS011;63771;52.580;9.734;2022-11-20T10:04:13;6.75;;;6.05;;
75191;SDS011;63771;52.580;9.734;2022-11-20T10:06:50;6.80;;;6.20;;
75191;SDS011;63771;52.580;9.734;2022-11-20T10:09:19;8.25;;;6.47;;
75191;SDS011;63771;52.580;9.734;2022-11-20T10:11:56;5.47;;;4.97;;
75191;SDS011;63771;52.580;9.734;2022-11-20T10:14:37;5.85;;;5.20;;
75191;SDS011;63771;52.580;9.734;2022-11-20T10:19:52;6.32;;;5.70;;
75191;SDS011;63771;52.580;9.734;2022-11-20T10:22:50;6.88;;;6.20;;
75191;SDS011;63771;52.580;9.734;2022-11-20T10:25:33;7.00;;;6.15;;
75191;SDS011;63771;52.580;9.734;2022-11-20T10:28:15;8.30;;;7.07;;
75191;SDS011;63771;52.580;9.734;2022-11-20T10:31:09;7.03;;;5.45;;
75191;SDS011;63771;52.580;9.734;2022-11-20T10:33:41;7.75;;;6.00;;
75191;SDS011;63771;52.580;9.734;2022-11-20T10:41:25;7.38;;;6.30;;
75191;SDS011;63771;52.580;9.734;2022-11-20T10:44:28;7.32;;;6.35;;
75191;SDS011;63771;52.580;9.734;2022-11-20T10:47:12;6.35;;;5.45;;
75191;SDS011;63771;52.580;9.734;2022-11-20T10:49:41;6.75;;;5.80;;
75191;SDS011;63771;52.580;9.734;2022-11-20T10:55:12;6.97;;;6.38;;
75191;SDS011;63771;52.580;9.734;2022-11-20T10:58:09;6.72;;;5.50;;
75191;SDS011;63771;52.580;9.734;2022-11-20T11:00:38;7.30;;;6.57;;
75191;SDS011;63771;52.580;9.734;2022-11-20T11:03:07;6.68;;;5.90;;
75191;SDS011;63771;52.580;9.734;2022-11-20T11:06:02;6.28;;;5.65;;
75191;SDS011;63771;52.580;9.734;2022-11-20T11:08:35;6.80;;;5.40;;
75191;SDS011;63771;52.580;9.734;2022-11-20T11:11:07;8.35;;;5.55;;
75191;SDS011;63771;52.580;9.734;2022-11-20T11:16:56;7.40;;;5.82;;
75191;SDS011;63771;52.580;9.734;2022-11-20T11:19:23;7.50;;;6.38;;
75191;SDS011;63771;52.580;9.734;2022-11-20T11:21:49;8.10;;;5.30;;
75191;SDS011;63771;52.580;9.734;2022-11-20T11:24:20;5.90;;;5.30;;
75191;SDS011;63771;52.580;9.734;2022-11-20T11:27:03;5.68;;;5.13;;
75191;SDS011;63771;52.580;9.734;2022-11-20T11:29:35;7.47;;;5.47;;
75191;SDS011;63771;52.580;9.734;2022-11-20T11:32:16;7.97;;;5.32;;
75191;SDS011;63771;52.580;9.734;2022-11-20T11:34:45;6.68;;;4.63;;
75191;SDS011;63771;52.580;9.734;2022-11-20T11:37:23;5.50;;;5.00;;
75191;SDS011;63771;52.580;9.734;2022-11-20T11:39:57;5.78;;;5.22;;
75191;SDS011;63771;52.580;9.734;2022-11-20T11:42:22;5.35;;;4.85;;
75191;SDS011;63771;52.580;9.734;2022-11-20T11:44:48;7.53;;;5.00;;
75191;SDS011;63771;52.580;9.734;2022-11-20T11:47:33;6.10;;;5.50;;
75191;SDS011;63771;52.580;9.734;2022-11-20T11:52:46;6.95;;;5.53;;
75191;SDS011;63771;52.580;9.734;2022-11-20T11:58:02;6.45;;;4.78;;
75191;SDS011;63771;52.580;9.734;2022-11-20T12:00:35;5.63;;;4.88;;
75191;SDS011;63771;52.580;9.734;2022-11-20T12:03:15;6.43;;;5.63;;
75191;SDS011;63771;52.580;9.734;2022-11-20T12:05:46;7.22;;;5.50;;
75191;SDS011;63771;52.580;9.734;2022-11-20T12:13:56;6.30;;;5.72;;
75191;SDS011;63771;52.580;9.734;2022-11-20T12:16:28;7.70;;;5.15;;
75191;SDS011;63771;52.580;9.734;2022-11-20T12:18:58;6.47;;;5.93;;
75191;SDS011;63771;52.580;9.734;2022-11-20T12:29:38;7.55;;;5.38;;
75191;SDS011;63771;52.580;9.734;2022-11-20T12:40:52;7.15;;;6.25;;
75191;SDS011;63771;52.580;9.734;2022-11-20T12:43:38;8.38;;;7.05;;
75191;SDS011;63771;52.580;9.734;2022-11-20T12:49:43;9.65;;;7.00;;
75191;SDS011;63771;52.580;9.734;2022-11-20T12:55:28;9.90;;;7.60;;
75191;SDS011;63771;52.580;9.734;2022-11-20T12:57:58;8.57;;;6.93;;
75191;SDS011;63771;52.580;9.734;2022-11-20T13:00:34;8.05;;;7.07;;
75191;SDS011;63771;52.580;9.734;2022-11-20T13:03:16;8.50;;;7.25;;
75191;SDS011;63771;52.580;9.734;2022-11-20T13:06:10;8.43;;;6.32;;
75191;SDS011;63771;52.580;9.734;2022-11-20T13:08:40;8.40;;;6.75;;
75191;SDS011;63771;52.580;9.734;2022-11-20T13:11:21;10.57;;;7.53;;
75191;SDS011;63771;52.580;9.734;2022-11-20T13:16:41;7.75;;;6.18;;
75191;SDS011;63771;52.580;9.734;2022-11-20T13:19:10;8.20;;;6.82;;
75191;SDS011;63771;52.580;9.734;2022-11-20T13:21:39;10.30;;;7.03;;
75191;SDS011;63771;52.580;9.734;2022-11-20T13:26:47;8.75;;;6.72;;
75191;SDS011;63771;52.580;9.734;2022-11-20T13:29:16;7.85;;;6.60;;
75191;SDS011;63771;52.580;9.734;2022-11-20T13:31:44;8.88;;;7.45;;
75191;SDS011;63771;52.580;9.734;2022-11-20T13:34:13;8.98;;;6.40;;
75191;SDS011;63771;52.580;9.734;2022-11-20T13:36:50;6.85;;;6.03;;
75191;SDS011;63771;52.580;9.734;2022-11-20T13:39:26;8.57;;;6.22;;
75191;SDS011;63771;52.580;9.734;2022-11-20T13:41:57;6.55;;;5.53;;
75191;SDS011;63771;52.580;9.734;2022-11-20T13:44:47;9.85;;;7.22;;
75191;SDS011;63771;52.580;9.734;2022-11-20T13:47:26;9.48;;;7.03;;
75191;SDS011;63771;52.580;9.734;2022-11-20T13:49:52;8.77;;;7.82;;
75191;SDS011;63771;52.580;9.734;2022-11-20T13:55:23;9.60;;;7.03;;
75191;SDS011;63771;52.580;9.734;2022-11-20T13:58:04;9.05;;;7.57;;
75191;SDS011;63771;52.580;9.734;2022-11-20T14:00:44;7.93;;;7.13;;
75191;SDS011;63771;52.580;9.734;2022-11-20T14:03:21;8.55;;;7.50;;
75191;SDS011;63771;52.580;9.734;2022-11-20T14:05:54;10.27;;;7.90;;
75191;SDS011;63771;52.580;9.734;2022-11-20T14:08:31;9.55;;;6.93;;
75191;SDS011;63771;52.580;9.734;2022-11-20T14:11:13;8.25;;;7.32;;
75191;SDS011;63771;52.580;9.734;2022-11-20T14:13:55;8.30;;;6.22;;
75191;SDS011;63771;52.580;9.734;2022-11-20T14:16:31;9.00;;;7.93;;
75191;SDS011;63771;52.580;9.734;2022-11-20T14:21:43;7.38;;;6.65;;
75191;SDS011;63771;52.580;9.734;2022-11-20T14:24:12;10.07;;;7.47;;
75191;SDS011;63771;52.580;9.734;2022-11-20T14:26:44;9.30;;;7.32;;
75191;SDS011;63771;52.580;9.734;2022-11-20T14:29:14;9.20;;;6.97;;
75191;SDS011;63771;52.580;9.734;2022-11-20T14:31:42;11.05;;;8.32;;
75191;SDS011;63771;52.580;9.734;2022-11-20T14:34:27;9.25;;;6.80;;
75191;SDS011;63771;52.580;9.734;2022-11-20T14:37:00;10.55;;;7.63;;
75191;SDS011;63771;52.580;9.734;2022-11-20T14:39:34;13.50;;;8.45;;
75191;SDS011;63771;52.580;9.734;2022-11-20T14:42:22;9.80;;;7.15;;
75191;SDS011;63771;52.580;9.734;2022-11-20T14:45:11;8.25;;;7.35;;
75191;SDS011;63771;52.580;9.734;2022-11-20T14:47:57;8.40;;;7.55;;
75191;SDS011;63771;52.580;9.734;2022-11-20T14:50:45;9.68;;;7.65;;
75191;SDS011;63771;52.580;9.734;2022-11-20T14:53:30;12.27;;;7.78;;
75191;SDS011;63771;52.580;9.734;2022-11-20T14:56:20;9.13;;;8.23;;
75191;SDS011;63771;52.580;9.734;2022-11-20T14:59:09;9.13;;;7.10;;
75191;SDS011;63771;52.580;9.734;2022-11-20T15:05:10;9.18;;;8.32;;
75191;SDS011;63771;52.580;9.734;2022-11-20T15:08:06;8.27;;;7.43;;
75191;SDS011;63771;52.580;9.734;2022-11-20T15:10:54;10.68;;;9.70;;
75191;SDS011;63771;52.580;9.734;2022-11-20T15:13:40;11.30;;;8.00;;
75191;SDS011;63771;52.580;9.734;2022-11-20T15:16:26;13.82;;;9.45;;
75191;SDS011;63771;52.580;9.734;2022-11-20T15:19:20;13.20;;;8.60;;
75191;SDS011;63771;52.580;9.734;2022-11-20T15:22:11;14.05;;;7.57;;
75191;SDS011;63771;52.580;9.734;2022-11-20T15:25:01;11.27;;;7.93;;
75191;SDS011;63771;52.580;9.734;2022-11-20T15:27:48;10.90;;;8.10;;
75191;SDS011;63771;52.580;9.734;2022-11-20T15:30:38;13.98;;;8.90;;
75191;SDS011;63771;52.580;9.734;2022-11-20T15:33:24;16.83;;;10.90;;
75191;SDS011;63771;52.580;9.734;2022-11-20T15:36:09;16.13;;;11.02;;
75191;SDS011;63771;52.580;9.734;2022-11-20T15:38:55;12.27;;;9.20;;
75191;SDS011;63771;52.580;9.734;2022-11-20T15:41:20;18.47;;;10.70;;
75191;SDS011;63771;52.580;9.734;2022-11-20T15:44:04;16.30;;;11.70;;
75191;SDS011;63771;52.580;9.734;2022-11-20T15:46:49;18.73;;;11.93;;
75191;SDS011;63771;52.580;9.734;2022-11-20T15:49:28;17.60;;;11.90;;
75191;SDS011;63771;52.580;9.734;2022-11-20T15:51:54;18.73;;;11.43;;
75191;SDS011;63771;52.580;9.734;2022-11-20T15:54:20;15.70;;;11.30;;
75191;SDS011;63771;52.580;9.734;2022-11-20T15:57:05;18.70;;;10.95;;
75191;SDS011;63771;52.580;9.734;2022-11-20T15:59:51;17.60;;;12.65;;
75191;SDS011;63771;52.580;9.734;2022-11-20T16:02:16;14.57;;;9.77;;
75191;SDS011;63771;52.580;9.734;2022-11-20T16:04:42;13.63;;;8.53;;
75191;SDS011;63771;52.580;9.734;2022-11-20T16:07:07;10.50;;;7.37;;
75191;SDS011;63771;52.580;9.734;2022-11-20T16:09:33;9.45;;;8.52;;
75191;SDS011;63771;52.580;9.734;2022-11-20T16:11:58;12.27;;;8.45;;
75191;SDS011;63771;52.580;9.734;2022-11-20T16:14:25;11.73;;;7.63;;
75191;SDS011;63771;52.580;9.734;2022-11-20T16:17:09;11.48;;;9.23;;
75191;SDS011;63771;52.580;9.734;2022-11-20T16:19:34;14.13;;;10.20;;
75191;SDS011;63771;52.580;9.734;2022-11-20T16:22:00;15.32;;;11.80;;
75191;SDS011;63771;52.580;9.734;2022-11-20T16:24:26;14.15;;;11.93;;